Main page
METAR-TAF:

METAR-TAF

Airports :

Bordeaux–Mérignac Airport

Bordeaux, France

latitude: 44-50N, longitude: 000-42W, elevation: 49 m

Current weather observation

The report was made 8 minutes ago, at 21:00 UTC
Wind 7 kt from the North/Northeast
Temperature 2°C
Humidity 75%
Pressure 1035 hPa
Visibility 10 km or more
no clouds below 1500 m and no cumulonimbus

METAR: LFBD 212100Z AUTO 02007KT CAVOK 02/M02 Q1035 NOSIG

Time: 22:08 (21:08 UTC)

Forecast

The report was made 4 hours and 8 minutes ago, at 17:00 UTC
Forecast valid from 21 at 18 UTC to 22 at 24 UTC
Wind 10 kt from the North/Northeast
Visibility 10 km or more
no clouds below 1500 m and no cumulonimbus
Probability 30% :
Temporary
from 22 at 02 UTC to 22 at 09 UTC
Wind 5 kt from the North/Northwest
Visibility: 0800 m
patches of fog

TAF: LFBD 211700Z 2118/2224 03010KT CAVOK TX08/2214Z TNM02/2206Z PROB30 TEMPO 2202/2209 34005KT 0800 BCFG VV///

Weather observations and forecasts of more than 4000 airports (METAR and TAF reports).

The available stations are represented by yellow and red dots on the map.

Hover mouse over dot to see the name of the station.

Then click to see weather observations and forecasts.

To change the map : click on the green buttons with a black cross to zoom in, on the green button with a dash to zoom out, or on the green arrows for adjacent maps.


METAR-TAF: